Time;durP1;ratioP1;P1;durP2;ratioP2;P2;SDS_P1;SDS_P2;PMS_P1;PMS_P2;Temp;Humidity;BMP_temperature;BMP_pressure;BME280_temperature;BME280_humidity;BME280_pressure;Samples;Min_cycle;Max_cycle;Signal;HPM_P1;HPM_P2
2023/06/28 00:01:58;;;;;;;7.20;4.30;;;;;;;20.48;100.00;151187.03;5035211;28;20624;-59
2023/06/28 00:04:25;;;;;;;6.40;4.47;;;;;;;20.33;100.00;151148.81;5035222;28;20190;-61
2023/06/28 00:06:52;;;;;;;4.57;4.28;;;;;;;20.35;100.00;151153.91;5035153;28;20198;-60
2023/06/28 00:09:20;;;;;;;5.10;3.85;;;;;;;20.28;100.00;151136.06;5035152;28;20190;-60
2023/06/28 00:11:47;;;;;;;5.40;4.20;;;;;;;20.19;100.00;151111.84;5035357;28;20214;-60
2023/06/28 00:14:14;;;;;;;5.30;4.45;;;;;;;20.29;100.00;151138.63;5035002;28;20201;-60
2023/06/28 00:16:41;;;;;;;4.55;4.18;;;;;;;20.34;100.00;151150.09;5034880;28;20190;-60
2023/06/28 00:19:07;;;;;;;4.40;4.10;;;;;;;20.29;100.00;151138.63;5035287;28;20494;-60
2023/06/28 00:21:34;;;;;;;6.23;4.40;;;;;;;20.14;100.00;151099.13;5034907;28;20182;-60
2023/06/28 00:24:01;;;;;;;9.37;4.37;;;;;;;20.29;100.00;151137.28;5034867;28;20202;-60
2023/06/28 00:26:29;;;;;;;5.07;4.13;;;;;;;20.27;100.00;151132.22;5035302;28;20190;-62
2023/06/28 00:28:56;;;;;;;5.53;4.37;;;;;;;20.30;100.00;151139.91;5035050;28;20190;-60
2023/06/28 00:31:23;;;;;;;4.57;4.05;;;;;;;20.25;100.00;151128.38;5034666;28;20324;-60
2023/06/28 00:33:50;;;;;;;4.75;4.35;;;;;;;20.16;100.00;151105.47;5034590;28;20190;-60
2023/06/28 00:36:17;;;;;;;6.07;4.68;;;;;;;19.73;100.00;150996.03;5017007;28;20198;-61
2023/06/28 00:38:44;;;;;;;7.03;4.63;;;;;;;19.26;100.00;150878.88;5034682;28;20199;-60
2023/06/28 00:41:10;;;;;;;7.70;4.78;;;;;;;19.42;100.00;150918.31;5034996;28;20537;-60
2023/06/28 00:43:39;;;;;;;7.63;5.53;;;;;;;19.35;100.00;150901.75;5034444;28;20230;-61
2023/06/28 00:46:05;;;;;;;8.90;4.97;;;;;;;19.23;100.00;150871.22;5034650;28;20186;-60
2023/06/28 00:48:32;;;;;;;6.10;4.47;;;;;;;18.92;100.00;150792.38;5034342;28;20197;-60
2023/06/28 00:51:00;;;;;;;5.13;4.63;;;;;;;19.00;100.00;150812.72;5034364;28;20236;-60
2023/06/28 00:53:27;;;;;;;5.00;4.33;;;;;;;19.15;100.00;150852.16;5034200;28;20241;-59
2023/06/28 00:55:56;;;;;;;5.20;4.70;;;;;;;19.24;100.00;150872.50;5034004;28;20616;-60
2023/06/28 00:58:22;;;;;;;4.80;4.60;;;;;;;19.17;100.00;150857.25;5034536;28;20583;-60
2023/06/28 01:00:52;;;;;;;5.10;4.40;;;;;;;19.10;100.00;150838.13;5034139;28;20197;-60
2023/06/28 01:03:19;;;;;;;5.07;4.60;;;;;;;19.31;100.00;150890.34;5034111;28;20335;-61
2023/06/28 01:05:49;;;;;;;5.10;4.57;;;;;;;19.31;100.00;150891.56;5034396;28;20256;-60
2023/06/28 01:08:18;;;;;;;6.77;3.87;;;;;;;19.39;100.00;150910.72;5034004;28;20197;-60
2023/06/28 01:10:47;;;;;;;4.30;4.03;;;;;;;19.44;100.00;150924.72;5034296;28;20219;-59
2023/06/28 01:13:14;;;;;;;9.52;4.43;;;;;;;19.38;100.00;150909.44;5033790;28;20226;-60
2023/06/28 01:15:41;;;;;;;7.83;6.40;;;;;;;19.47;100.00;150931.09;5034258;28;20552;-60
2023/06/28 01:18:09;;;;;;;10.85;7.63;;;;;;;19.64;100.00;150973.09;5034296;28;20212;-60
2023/06/28 01:20:36;;;;;;;8.45;6.78;;;;;;;19.59;100.00;150962.94;5033885;28;20190;-60
2023/06/28 01:23:05;;;;;;;7.50;5.90;;;;;;;19.68;100.00;150983.28;5033724;28;20194;-60
2023/06/28 01:25:34;;;;;;;4.83;4.53;;;;;;;19.28;100.00;150882.69;5033724;28;20193;-60
2023/06/28 01:28:02;;;;;;;4.80;4.38;;;;;;;19.45;100.00;150926.00;5034030;28;20281;-60
2023/06/28 01:30:29;;;;;;;5.07;4.70;;;;;;;19.33;100.00;150895.41;5033672;28;20201;-59
2023/06/28 01:32:56;;;;;;;5.50;4.40;;;;;;;19.13;100.00;150847.09;5033739;28;20210;-60
2023/06/28 01:35:23;;;;;;;9.37;4.87;;;;;;;19.32;100.00;150894.13;5033478;28;20205;-60
2023/06/28 01:37:51;;;;;;;5.57;5.17;;;;;;;19.39;100.00;150910.72;5033883;28;20563;-60
2023/06/28 01:40:20;;;;;;;5.93;5.40;;;;;;;19.46;100.00;150929.81;5033808;28;20309;-60
2023/06/28 01:42:48;;;;;;;5.22;4.88;;;;;;;19.42;100.00;150919.59;5033625;28;20195;-60
2023/06/28 01:45:15;;;;;;;5.37;4.97;;;;;;;19.41;100.00;150917.03;5033586;28;20190;-60
2023/06/28 01:47:42;;;;;;;6.47;4.53;;;;;;;19.24;100.00;150872.50;5033323;28;20197;-60
2023/06/28 01:50:10;;;;;;;5.30;5.00;;;;;;;19.18;100.00;150859.75;5033268;28;20201;-60
2023/06/28 01:52:37;;;;;;;5.60;5.03;;;;;;;18.94;100.00;150798.72;5015762;28;20226;-60
2023/06/28 01:55:05;;;;;;;6.47;5.27;;;;;;;18.75;100.00;150749.13;5033059;28;20205;-61
2023/06/28 01:57:33;;;;;;;5.67;5.20;;;;;;;18.76;100.00;150752.91;5033187;28;20194;-59
2023/06/28 02:00:04;;;;;;;5.17;4.87;;;;;;;18.52;100.00;150691.81;5033012;28;20194;-61
2023/06/28 02:02:33;;;;;;;5.33;4.90;;;;;;;18.75;100.00;150749.13;5032914;28;20325;-60
2023/06/28 02:05:00;;;;;;;6.73;4.97;;;;;;;18.64;100.00;150723.66;5033402;28;20572;-59
2023/06/28 02:07:27;;;;;;;9.97;5.67;;;;;;;18.61;100.00;150716.06;5032202;28;20194;-61
2023/06/28 02:09:54;;;;;;;5.33;4.93;;;;;;;18.58;100.00;150708.44;5033493;28;20194;-60
2023/06/28 02:12:21;;;;;;;7.97;5.20;;;;;;;18.66;100.00;150727.50;5032825;28;20214;-58
2023/06/28 02:14:51;;;;;;;5.03;4.60;;;;;;;18.79;100.00;150760.56;5033008;28;20186;-60
2023/06/28 02:17:20;;;;;;;5.20;4.90;;;;;;;18.92;100.00;150792.38;5033137;28;20213;-60
2023/06/28 02:19:47;;;;;;;11.77;5.57;;;;;;;18.97;100.00;150805.06;5032926;28;20228;-60
2023/06/28 02:22:15;;;;;;;5.43;4.70;;;;;;;18.82;100.00;150766.91;5032975;28;20191;-60
2023/06/28 02:24:42;;;;;;;6.33;4.77;;;;;;;18.80;100.00;150763.09;5032811;28;20193;-60
2023/06/28 02:27:09;;;;;;;5.87;5.00;;;;;;;18.87;100.00;150780.91;5032570;28;20186;-59
2023/06/28 02:29:36;;;;;;;8.70;5.03;;;;;;;18.91;100.00;150791.09;5032763;28;20572;-60
2023/06/28 02:32:05;;;;;;;5.30;4.80;;;;;;;18.85;100.00;150774.53;5032653;28;20672;-59
2023/06/28 02:34:33;;;;;;;5.37;4.90;;;;;;;18.80;100.00;150763.09;5032467;28;20194;-59
2023/06/28 02:37:00;;;;;;;7.13;4.67;;;;;;;18.61;100.00;150714.78;5032660;28;20300;-60
2023/06/28 02:39:27;;;;;;;6.57;5.20;;;;;;;18.92;100.00;150793.66;5032484;28;20286;-59
2023/06/28 02:41:54;;;;;;;10.23;4.73;;;;;;;18.97;100.00;150806.34;5032630;28;20245;-59
2023/06/28 02:44:21;;;;;;;6.03;4.77;;;;;;;19.06;100.00;150827.97;5032277;28;20312;-60
2023/06/28 02:46:48;;;;;;;7.03;5.37;;;;;;;19.05;100.00;150825.44;5032112;28;20194;-61
2023/06/28 02:49:16;;;;;;;7.33;5.00;;;;;;;19.18;100.00;150858.50;5032118;28;20200;-59
2023/06/28 02:51:43;;;;;;;8.18;5.07;;;;;;;19.22;100.00;150867.44;5014723;28;20210;-62
2023/06/28 02:54:10;;;;;;;9.83;4.60;;;;;;;19.15;100.00;150850.88;5031964;28;20234;-60
2023/06/28 02:56:37;;;;;;;6.43;5.03;;;;;;;19.33;100.00;150896.69;5031965;28;20205;-61
2023/06/28 02:59:04;;;;;;;6.00;5.20;;;;;;;19.40;100.00;150913.22;5032382;28;20189;-61
2023/06/28 03:01:31;;;;;;;12.00;5.43;;;;;;;19.39;100.00;150911.94;5031901;28;20196;-60
2023/06/28 03:03:57;;;;;;;7.87;4.87;;;;;;;19.42;100.00;150918.31;5032478;28;20190;-60
2023/06/28 03:06:26;;;;;;;5.27;4.87;;;;;;;19.51;100.00;150941.28;5032004;28;20194;-61
2023/06/28 03:08:52;;;;;;;7.53;5.07;;;;;;;19.72;100.00;150993.47;5032124;28;20197;-60
2023/06/28 03:11:19;;;;;;;5.30;4.90;;;;;;;19.84;100.00;151024.00;5032044;28;20194;-60
2023/06/28 03:13:46;;;;;;;8.30;5.10;;;;;;;19.89;100.00;151036.75;5014514;28;20210;-61
2023/06/28 03:16:13;;;;;;;5.50;5.10;;;;;;;19.87;100.00;151032.91;5031702;28;20197;-60
2023/06/28 03:18:40;;;;;;;5.25;4.97;;;;;;;20.30;100.00;151141.19;5031445;28;20230;-60
2023/06/28 03:21:07;;;;;;;5.50;5.20;;;;;;;20.74;100.00;151250.72;5032273;28;20650;-61
2023/06/28 03:23:35;;;;;;;5.57;5.00;;;;;;;21.31;100.00;151395.97;5031696;28;20196;-60
2023/06/28 03:26:02;;;;;;;7.00;5.47;;;;;;;21.87;100.00;151536.19;5031825;28;20644;-61
2023/06/28 03:28:29;;;;;;;6.18;5.35;;;;;;;21.83;100.00;151526.00;5031543;28;20202;-59
2023/06/28 03:30:57;;;;;;;5.53;5.03;;;;;;;21.85;100.00;151531.09;5031592;28;20186;-60
2023/06/28 03:33:24;;;;;;;6.40;5.07;;;;;;;21.83;100.00;151527.25;5031505;28;20210;-61
2023/06/28 03:35:51;;;;;;;7.45;5.57;;;;;;;21.91;100.00;151545.09;5031501;28;20190;-61
2023/06/28 03:38:18;;;;;;;6.55;5.70;;;;;;;22.05;100.00;151580.84;5031460;28;20194;-62
2023/06/28 03:40:46;;;;;;;7.25;5.57;;;;;;;22.23;100.00;151628.06;5031500;28;20226;-61
2023/06/28 03:43:13;;;;;;;9.88;5.95;;;;;;;22.20;100.00;151620.38;5031751;28;20187;-60
2023/06/28 03:45:40;;;;;;;16.70;6.75;;;;;;;22.54;100.00;151704.53;5031631;28;20190;-60
2023/06/28 03:48:07;;;;;;;13.43;6.65;;;;;;;22.73;100.00;151753.06;5031228;28;20190;-60
2023/06/28 03:50:33;;;;;;;16.38;6.72;;;;;;;22.96;100.00;151811.72;5031152;28;20243;-60
2023/06/28 03:53:01;;;;;;;16.48;6.78;;;;;;;23.18;100.00;151866.56;5031128;28;20313;-61
2023/06/28 03:55:29;;;;;;;13.32;6.60;;;;;;;23.44;100.00;151931.72;5031290;28;20190;-60
2023/06/28 03:57:57;;;;;;;9.30;6.47;;;;;;;23.54;100.00;151957.25;5031453;28;20214;-61
2023/06/28 04:00:24;;;;;;;9.27;7.15;;;;;;;23.73;100.00;152004.44;5031552;28;20213;-61
2023/06/28 04:16:32;;;;;;;5.63;5.13;;;;;;;24.78;100.00;152270.09;6167191;22;1382286;-60
2023/06/28 04:18:59;;;;;;;5.53;5.10;;;;;;;24.84;100.00;152286.69;6222555;23;20197;-59
2023/06/28 04:21:26;;;;;;;5.07;4.75;;;;;;;24.88;100.00;152295.66;6222473;23;20169;-60
2023/06/28 04:23:53;;;;;;;5.30;4.90;;;;;;;25.04;100.00;152336.53;6222683;23;20595;-60
2023/06/28 04:26:20;;;;;;;7.20;5.45;;;;;;;25.17;100.00;152368.47;6222680;23;20171;-58
2023/06/28 04:28:47;;;;;;;16.15;6.50;;;;;;;25.37;100.00;152419.63;6222672;23;20185;-59
2023/06/28 04:31:14;;;;;;;8.95;5.28;;;;;;;25.40;100.00;152427.25;6222705;23;20161;-60
2023/06/28 04:33:42;;;;;;;12.02;6.70;;;;;;;25.65;100.00;152491.22;6222567;23;20161;-59
2023/06/28 04:36:11;;;;;;;9.05;6.50;;;;;;;25.78;100.00;152524.44;6222648;23;20473;-59
2023/06/28 04:38:39;;;;;;;9.10;6.15;;;;;;;26.05;100.00;152590.91;6222233;23;20157;-60
2023/06/28 04:41:05;;;;;;;13.43;6.13;;;;;;;26.18;100.00;152624.16;6222228;23;20244;-59
2023/06/28 04:43:43;;;;;;;14.27;7.03;;;;;;;26.48;100.00;152699.63;6222110;23;20209;-59
2023/06/28 04:46:11;;;;;;;12.05;7.47;;;;;;;26.53;100.00;152713.66;6222193;23;20157;-60
2023/06/28 04:48:38;;;;;;;15.88;7.38;;;;;;;26.66;100.00;152746.94;6222215;23;20192;-58
2023/06/28 04:51:06;;;;;;;11.68;7.47;;;;;;;26.81;100.00;152785.31;6222132;23;20162;-58
2023/06/28 04:53:33;;;;;;;13.65;7.70;;;;;;;26.92;100.00;152810.91;6222495;23;20499;-58
2023/06/28 04:56:00;;;;;;;12.70;7.40;;;;;;;27.13;100.00;152864.63;6195858;23;20157;-60
2023/06/28 04:58:27;;;;;;;9.48;7.35;;;;;;;26.97;100.00;152825.00;6222073;23;20164;-59
2023/06/28 05:00:56;;;;;;;16.98;7.55;;;;;;;27.41;100.00;152935.03;6221976;23;20157;-59
2023/06/28 05:03:26;;;;;;;16.02;7.70;;;;;;;27.56;100.00;152973.44;6222865;23;20188;-60
2023/06/28 05:05:53;;;;;;;15.73;8.35;;;;;;;27.60;100.00;152983.66;6196846;23;20259;-59
2023/06/28 05:08:21;;;;;;;16.92;8.02;;;;;;;27.82;100.00;153038.69;6222636;23;20161;-59
2023/06/28 05:10:48;;;;;;;17.10;9.38;;;;;;;27.90;98.98;153060.47;6222451;23;20157;-60
2023/06/28 05:13:15;;;;;;;9.18;8.20;;;;;;;27.93;96.88;153066.84;6222472;23;20164;-60
2023/06/28 05:15:42;;;;;;;8.43;7.55;;;;;;;28.21;97.63;153138.59;6220404;23;20193;-59
2023/06/28 05:18:09;;;;;;;19.23;8.75;;;;;;;28.24;98.46;153146.25;6215250;23;20165;-57
2023/06/28 05:20:36;;;;;;;17.75;7.57;;;;;;;28.46;96.43;153201.31;6215134;23;20158;-57
2023/06/28 05:23:10;;;;;;;21.42;8.38;;;;;;;28.58;95.77;153232.03;6215001;23;20253;-58
2023/06/28 05:25:39;;;;;;;29.08;10.25;;;;;;;28.75;97.65;153274.34;6215114;23;20243;-58
2023/06/28 05:28:06;;;;;;;16.67;8.30;;;;;;;28.88;94.49;153307.63;6215586;23;20161;-58
2023/06/28 05:30:32;;;;;;;17.20;9.45;;;;;;;29.05;92.42;153352.47;6215316;23;20158;-58
2023/06/28 05:33:02;;;;;;;18.83;9.70;;;;;;;29.09;93.89;153361.41;6215315;23;20457;-57
2023/06/28 05:35:29;;;;;;;18.38;9.90;;;;;;;29.13;90.75;153371.66;6215028;23;20161;-59
2023/06/28 05:37:56;;;;;;;22.67;9.05;;;;;;;29.33;89.27;153422.94;6188476;23;20192;-58
2023/06/28 05:40:23;;;;;;;19.73;9.57;;;;;;;29.50;87.21;153465.22;6215087;23;20164;-60
2023/06/28 05:42:53;;;;;;;29.42;9.73;;;;;;;29.58;87.50;153484.47;6215261;23;20491;-58
2023/06/28 05:45:20;;;;;;;20.63;8.93;;;;;;;29.80;88.24;153542.09;6214972;23;20201;-59
2023/06/28 05:47:47;;;;;;;17.60;8.68;;;;;;;29.82;87.30;153545.94;6214400;23;20232;-58
2023/06/28 05:50:15;;;;;;;15.75;7.50;;;;;;;29.83;82.34;153549.75;6214752;23;20184;-58
2023/06/28 05:52:43;;;;;;;8.15;7.32;;;;;;;30.23;80.13;153649.78;6214428;23;20248;-57
2023/06/28 05:55:10;;;;;;;9.77;6.65;;;;;;;30.46;78.80;153708.81;6214458;23;20154;-55
2023/06/28 05:57:37;;;;;;;9.57;6.85;;;;;;;30.55;78.47;153730.59;6214631;23;20169;-57
2023/06/28 06:00:06;;;;;;;9.85;7.32;;;;;;;30.84;77.67;153804.94;6214271;23;20161;-57
2023/06/28 06:02:36;;;;;;;10.48;8.15;;;;;;;31.14;73.45;153880.66;6214757;23;20177;-57
2023/06/28 06:05:04;;;;;;;18.27;7.93;;;;;;;31.39;74.14;153943.47;6213983;23;20181;-57
2023/06/28 06:07:32;;;;;;;13.05;8.50;;;;;;;31.65;72.27;154011.53;6213998;23;20244;-57
2023/06/28 06:09:59;;;;;;;15.93;10.02;;;;;;;32.04;72.58;154110.25;6211059;23;20165;-61
2023/06/28 06:12:26;;;;;;;14.88;9.00;;;;;;;32.46;69.13;154215.56;6214318;23;20188;-60
2023/06/28 06:14:55;;;;;;;15.32;7.70;;;;;;;32.46;66.22;154216.81;6213907;23;20197;-60
2023/06/28 06:17:23;;;;;;;9.98;6.43;;;;;;;32.63;66.94;154257.97;6214722;23;20161;-61
2023/06/28 06:19:50;;;;;;;9.95;7.18;;;;;;;32.50;67.92;154227.13;6213972;23;20516;-60
2023/06/28 06:22:17;;;;;;;8.20;7.53;;;;;;;32.49;65.46;154223.25;6214351;23;20618;-60
2023/06/28 06:24:44;;;;;;;11.32;6.88;;;;;;;32.43;65.89;154207.81;6214316;23;20182;-61
2023/06/28 06:27:15;;;;;;;15.05;6.90;;;;;;;33.01;64.44;154356.81;6213737;23;20161;-62
2023/06/28 06:29:41;;;;;;;9.68;6.53;;;;;;;33.50;62.54;154480.06;6214694;23;20561;-60
2023/06/28 06:32:09;;;;;;;6.65;6.18;;;;;;;33.98;58.66;154602.16;6214273;23;20611;-59
2023/06/28 06:34:39;;;;;;;15.93;7.07;;;;;;;34.22;59.07;154663.84;6213964;23;20357;-62
2023/06/28 06:37:11;;;;;;;13.32;7.13;;;;;;;34.04;59.41;154616.22;6214210;23;20230;-61
2023/06/28 06:39:39;;;;;;;9.50;5.95;;;;;;;33.64;61.67;154516.03;6214663;23;20161;-63
2023/06/28 06:42:06;;;;;;;9.75;8.85;;;;;;;34.67;57.94;154776.97;6214724;23;20153;-65
2023/06/28 06:44:35;;;;;;;13.27;9.55;;;;;;;34.73;57.83;154793.66;6214051;23;20161;-63
2023/06/28 06:47:03;;;;;;;11.90;10.65;;;;;;;34.67;57.79;154778.19;6213999;23;20240;-60
2023/06/28 06:49:30;;;;;;;12.10;8.75;;;;;;;34.19;60.82;154654.84;6213833;23;20157;-61
2023/06/28 06:51:58;;;;;;;12.57;8.75;;;;;;;34.01;62.91;154609.84;6214167;23;20188;-60
2023/06/28 06:54:29;;;;;;;10.45;7.05;;;;;;;34.13;61.23;154640.66;6214193;23;20203;-62
2023/06/28 06:56:56;;;;;;;8.15;6.78;;;;;;;34.24;60.56;154669.00;6214424;23;20212;-60
2023/06/28 06:59:24;;;;;;;4.75;4.43;;;;;;;34.83;59.27;154818.06;6214132;23;20164;-60
2023/06/28 07:01:53;;;;;;;5.35;4.97;;;;;;;34.98;58.04;154855.31;6214147;23;20621;-64
2023/06/28 07:04:21;;;;;;;5.07;4.65;;;;;;;34.58;59.31;154753.78;6214472;23;20596;-59
2023/06/28 07:06:49;;;;;;;6.47;5.95;;;;;;;33.88;61.92;154577.72;6214202;23;20485;-63
2023/06/28 07:09:18;;;;;;;6.28;5.47;;;;;;;33.72;62.65;154535.34;6216254;23;20241;-66
2023/06/28 07:11:46;;;;;;;8.85;5.32;;;;;;;33.76;64.24;154545.63;6216129;23;20162;-65
2023/06/28 07:14:13;;;;;;;5.05;4.68;;;;;;;33.57;65.18;154498.03;6215170;23;20243;-60
2023/06/28 07:16:44;;;;;;;9.20;5.90;;;;;;;33.63;63.30;154513.47;6214343;23;20638;-60
2023/06/28 07:19:12;;;;;;;7.20;5.32;;;;;;;33.64;64.86;154514.75;6214762;23;20170;-61
2023/06/28 07:21:39;;;;;;;8.38;5.13;;;;;;;33.76;67.94;154546.91;6214512;23;20158;-61
2023/06/28 07:24:09;;;;;;;5.00;4.78;;;;;;;34.20;62.85;154658.72;6187740;23;20169;-62
2023/06/28 07:26:37;;;;;;;6.35;6.05;;;;;;;33.70;63.97;154531.47;6213751;23;20190;-61
2023/06/28 07:29:04;;;;;;;5.05;4.85;;;;;;;33.10;67.66;154378.56;6213943;23;20169;-62
2023/06/28 07:31:31;;;;;;;6.72;5.75;;;;;;;33.59;67.55;154503.19;6213833;23;20197;-62
2023/06/28 07:34:04;;;;;;;8.80;5.20;;;;;;;33.55;66.78;154491.63;6214207;23;20179;-61
2023/06/28 07:36:31;;;;;;;5.35;5.15;;;;;;;33.47;67.30;154472.38;6214374;23;20164;-63
2023/06/28 07:39:01;;;;;;;5.95;5.38;;;;;;;33.26;68.85;154418.47;6214019;23;20172;-62
2023/06/28 07:41:27;;;;;;;5.20;4.80;;;;;;;33.46;68.24;154469.81;6213605;23;20184;-61
2023/06/28 07:43:56;;;;;;;5.82;5.25;;;;;;;33.46;68.66;154469.81;6214063;23;20157;-63
2023/06/28 07:46:23;;;;;;;5.97;5.15;;;;;;;33.41;68.54;154456.97;6213788;23;20247;-65
2023/06/28 07:48:51;;;;;;;7.65;6.90;;;;;;;33.39;67.69;154451.84;6213582;23;20248;-62
2023/06/28 07:51:18;;;;;;;5.90;5.35;;;;;;;33.37;67.76;154446.69;6213735;23;20166;-62
2023/06/28 07:53:46;;;;;;;11.70;5.80;;;;;;;33.18;70.33;154399.22;6213667;23;20165;-63
2023/06/28 07:56:13;;;;;;;7.25;5.55;;;;;;;33.60;70.05;154505.78;6213858;23;20160;-62
2023/06/28 07:58:40;;;;;;;5.82;5.63;;;;;;;33.51;66.56;154483.94;6214231;23;20166;-62
2023/06/28 08:01:08;;;;;;;7.82;5.07;;;;;;;33.33;69.05;154436.41;6213630;23;20212;-63
2023/06/28 08:03:38;;;;;;;6.57;6.10;;;;;;;33.49;70.09;154477.50;6214058;23;20256;-63
2023/06/28 08:06:05;;;;;;;5.85;5.35;;;;;;;33.88;66.91;154577.72;6213480;23;20192;-63
2023/06/28 08:08:35;;;;;;;6.90;6.43;;;;;;;34.08;68.18;154626.50;6213120;23;20653;-62
2023/06/28 08:11:02;;;;;;;6.20;5.75;;;;;;;33.93;68.12;154589.28;6213088;23;20158;-60
2023/06/28 08:13:31;;;;;;;6.25;5.60;;;;;;;34.14;65.53;154641.94;6213468;23;20572;-61
2023/06/28 08:15:59;;;;;;;6.07;5.57;;;;;;;34.48;65.82;154729.34;6213019;23;20201;-61
2023/06/28 08:18:28;;;;;;;6.15;5.60;;;;;;;34.47;65.27;154725.47;6213437;23;20193;-61
2023/06/28 08:20:54;;;;;;;6.00;5.80;;;;;;;34.51;66.02;154735.75;6213509;23;20158;-62
2023/06/28 08:23:21;;;;;;;6.15;5.53;;;;;;;34.42;62.21;154713.91;6212922;23;20169;-62
2023/06/28 08:25:48;;;;;;;5.65;5.35;;;;;;;34.16;64.51;154647.16;6213014;23;20323;-61
2023/06/28 08:28:18;;;;;;;7.25;5.78;;;;;;;34.10;65.14;154632.97;6213304;23;20164;-61
2023/06/28 08:30:45;;;;;;;8.00;6.07;;;;;;;34.26;65.37;154674.09;6212465;23;20662;-61
2023/06/28 08:33:16;;;;;;;7.43;5.78;;;;;;;34.33;64.35;154690.84;6213661;23;20168;-61
2023/06/28 08:35:44;;;;;;;5.13;4.93;;;;;;;34.17;65.44;154649.69;6212992;23;20548;-61
2023/06/28 08:38:11;;;;;;;8.07;5.30;;;;;;;34.35;64.75;154697.25;6213992;23;20180;-61
2023/06/28 08:40:41;;;;;;;7.93;6.18;;;;;;;34.57;66.60;154752.50;6212934;23;20247;-61
2023/06/28 08:43:11;;;;;;;5.63;5.32;;;;;;;34.89;65.45;154832.19;6213038;23;20656;-62
2023/06/28 08:45:38;;;;;;;6.57;6.07;;;;;;;34.47;66.01;154726.78;6212784;23;20239;-61
2023/06/28 08:48:06;;;;;;;6.40;5.88;;;;;;;33.82;68.98;154562.28;6213285;23;20162;-62
2023/06/28 08:50:34;;;;;;;6.22;5.85;;;;;;;33.57;71.47;154496.78;6213932;23;20240;-60
2023/06/28 08:53:04;;;;;;;9.93;6.65;;;;;;;33.18;75.22;154397.91;6215108;23;20169;-61
2023/06/28 08:55:32;;;;;;;7.07;6.57;;;;;;;33.24;75.29;154413.31;6215614;23;20158;-61
2023/06/28 08:57:59;;;;;;;9.10;8.40;;;;;;;33.10;74.41;154378.56;6215328;23;20260;-61
2023/06/28 09:00:26;;;;;;;10.93;6.70;;;;;;;33.71;71.65;154534.06;6215368;23;20504;-59
2023/06/28 09:02:53;;;;;;;6.38;5.88;;;;;;;34.12;66.57;154636.84;6215214;23;20651;-61
2023/06/28 09:05:21;;;;;;;5.65;5.45;;;;;;;34.82;64.07;154816.78;6215454;23;20185;-61
2023/06/28 09:07:51;;;;;;;11.93;6.47;;;;;;;34.75;63.93;154798.81;6214856;23;20158;-60
2023/06/28 09:10:21;;;;;;;6.68;6.10;;;;;;;34.35;63.03;154697.25;6214929;23;20166;-61
2023/06/28 09:12:49;;;;;;;5.35;5.05;;;;;;;34.28;64.70;154677.97;6214830;23;20219;-61
2023/06/28 09:15:20;;;;;;;6.55;6.10;;;;;;;34.05;66.57;154620.09;6214898;23;20224;-60
2023/06/28 09:17:47;;;;;;;6.38;6.07;;;;;;;34.11;67.61;154635.53;6214544;23;20158;-62
2023/06/28 09:20:18;;;;;;;6.28;5.80;;;;;;;34.10;67.80;154631.66;6188257;23;20635;-61
2023/06/28 09:22:55;;;;;;;5.90;5.57;;;;;;;34.31;65.20;154686.97;6214859;23;20164;-60
2023/06/28 09:25:27;;;;;;;6.63;6.03;;;;;;;34.12;64.54;154636.84;6215064;23;20239;-61
2023/06/28 09:27:54;;;;;;;6.60;6.20;;;;;;;34.24;65.15;154667.69;6214648;23;20505;-61
2023/06/28 09:30:21;;;;;;;6.35;6.00;;;;;;;34.33;65.73;154692.06;6214793;23;20216;-60
2023/06/28 09:32:51;;;;;;;7.03;6.35;;;;;;;34.55;63.63;154747.31;6214603;23;20209;-61
2023/06/28 09:35:18;;;;;;;6.00;5.70;;;;;;;34.17;62.04;154649.69;6214528;23;20166;-62
2023/06/28 09:37:50;;;;;;;5.97;5.45;;;;;;;34.37;61.71;154702.34;6214614;23;20166;-61
2023/06/28 09:40:18;;;;;;;5.65;5.32;;;;;;;34.42;61.12;154715.22;6214704;23;20611;-62
2023/06/28 09:42:48;;;;;;;5.70;5.38;;;;;;;34.29;62.49;154680.50;6214145;23;20161;-60
2023/06/28 09:45:25;;;;;;;6.83;6.40;;;;;;;34.58;62.40;154753.78;6214178;23;20172;-61
2023/06/28 09:47:59;;;;;;;6.05;5.65;;;;;;;34.67;59.68;154776.97;6214866;23;20322;-61
2023/06/28 09:50:36;;;;;;;9.70;5.78;;;;;;;34.63;61.96;154767.88;6214273;23;20174;-61
2023/06/28 09:53:03;;;;;;;5.80;5.35;;;;;;;35.11;60.26;154888.72;6214448;23;20662;-61
2023/06/28 09:55:30;;;;;;;8.38;5.80;;;;;;;34.92;58.52;154839.91;6214945;23;20162;-62
2023/06/28 09:58:00;;;;;;;5.53;5.32;;;;;;;35.03;56.72;154869.47;6214746;23;20164;-61
2023/06/28 10:00:31;;;;;;;6.57;5.93;;;;;;;35.76;55.64;155054.66;6214750;23;20212;-61
2023/06/28 10:03:02;;;;;;;10.82;6.03;;;;;;;36.27;54.06;155184.59;6214463;23;20192;-61
2023/06/28 10:05:38;;;;;;;10.20;6.32;;;;;;;36.22;52.08;155171.72;6214229;23;20200;-61
2023/06/28 10:08:08;;;;;;;5.55;5.35;;;;;;;36.17;49.48;155160.13;6214575;23;20160;-61
2023/06/28 10:10:37;;;;;;;6.40;5.80;;;;;;;36.26;49.67;155180.72;6214529;23;20525;-62
2023/06/28 10:13:08;;;;;;;5.88;5.43;;;;;;;35.98;48.57;155109.97;6214504;23;20615;-62
2023/06/28 10:15:40;;;;;;;6.75;5.07;;;;;;;35.70;50.37;155040.50;6213484;23;20193;-62
2023/06/28 10:18:07;;;;;;;6.93;6.60;;;;;;;35.22;52.71;154918.31;6213731;23;20161;-61
2023/06/28 10:20:37;;;;;;;6.88;6.28;;;;;;;34.33;55.58;154692.06;6214122;23;20217;-63
2023/06/28 10:23:06;;;;;;;6.72;6.15;;;;;;;33.59;58.16;154503.19;6213325;23;20635;-60
2023/06/28 10:25:33;;;;;;;6.10;5.68;;;;;;;33.35;60.07;154442.88;6213558;23;20220;-61
2023/06/28 10:28:03;;;;;;;7.18;6.70;;;;;;;32.99;61.45;154351.66;6214223;23;20172;-59
2023/06/28 10:30:32;;;;;;;6.60;6.20;;;;;;;32.80;62.81;154302.88;6214226;23;20158;-62
2023/06/28 10:33:00;;;;;;;12.38;5.85;;;;;;;32.73;63.58;154284.88;6214099;23;20165;-62
2023/06/28 10:35:28;;;;;;;6.68;6.38;;;;;;;32.91;63.14;154331.09;6188274;23;20504;-63
2023/06/28 10:37:57;;;;;;;6.85;6.53;;;;;;;33.23;61.93;154412.00;6214225;23;20614;-61
2023/06/28 10:40:25;;;;;;;12.52;6.40;;;;;;;33.22;63.21;154408.19;6213721;23;20164;-60
2023/06/28 10:42:52;;;;;;;7.65;6.90;;;;;;;33.11;64.10;154381.16;6214112;23;20584;-61
2023/06/28 10:45:35;;;;;;;7.03;6.40;;;;;;;33.21;65.06;154405.59;6214964;23;20241;-59
2023/06/28 10:48:11;;;;;;;7.90;7.32;;;;;;;33.16;62.75;154392.75;6214048;23;20158;-61
2023/06/28 10:50:42;;;;;;;6.00;5.80;;;;;;;32.85;60.84;154315.69;6214554;23;20237;-63
2023/06/28 10:53:20;;;;;;;7.88;7.45;;;;;;;32.87;60.91;154320.84;6213979;23;20168;-61
2023/06/28 10:56:12;;;;;;;7.00;6.32;;;;;;;32.91;57.28;154329.81;6214254;23;20162;-62
2023/06/28 10:58:40;;;;;;;8.70;7.20;;;;;;;33.00;56.94;154354.22;6214124;23;20233;-60
2023/06/28 11:01:14;;;;;;;5.90;5.70;;;;;;;33.21;58.29;154405.59;6213740;23;20164;-60
2023/06/28 11:03:42;;;;;;;6.53;6.07;;;;;;;33.52;57.91;154485.25;6213927;23;20169;-59
2023/06/28 11:06:12;;;;;;;6.20;5.80;;;;;;;33.61;54.04;154508.31;6213978;23;20219;-61
2023/06/28 11:08:41;;;;;;;6.25;5.90;;;;;;;33.77;53.79;154549.50;6213795;23;20165;-60
2023/06/28 11:11:09;;;;;;;6.10;5.70;;;;;;;34.04;52.31;154616.22;6214292;23;20589;-61
2023/06/28 11:13:48;;;;;;;7.93;5.80;;;;;;;34.17;50.48;154649.69;6213689;23;20188;-61
2023/06/28 11:16:20;;;;;;;10.48;5.90;;;;;;;34.20;50.33;154658.72;6213541;23;20535;-60
2023/06/28 11:18:48;;;;;;;6.80;6.28;;;;;;;34.33;49.57;154690.84;6213843;23;20260;-62
2023/06/28 11:21:18;;;;;;;5.47;5.18;;;;;;;34.30;48.38;154684.38;6214302;23;20555;-61
2023/06/28 11:23:47;;;;;;;9.38;5.30;;;;;;;34.40;48.56;154708.81;6214221;23;20545;-59
2023/06/28 11:26:15;;;;;;;5.82;5.50;;;;;;;34.02;50.62;154612.41;6213328;23;20178;-60
2023/06/28 11:28:50;;;;;;;6.95;6.43;;;;;;;34.20;53.54;154657.44;6213247;23;20249;-60
2023/06/28 11:31:20;;;;;;;6.18;5.95;;;;;;;34.04;54.50;154616.22;6213827;23;20161;-59
2023/06/28 11:33:50;;;;;;;5.93;5.65;;;;;;;33.79;55.47;154554.59;6213372;23;20527;-61
2023/06/28 11:36:18;;;;;;;12.15;6.43;;;;;;;33.49;57.18;154477.50;6214119;23;20547;-60
2023/06/28 11:38:46;;;;;;;6.30;5.88;;;;;;;33.55;58.06;154492.94;6213619;23;20161;-60